Annapolis, California
Current Conditions -  °F | °C
As of 12:56 PM on Friday 28 Nov 2014 (Local Time) from KUKI Reporting Station
Light Rain Light Rain  
Wind Chill: 49°   Ceiling: 4200
Heat Index: 49°   Visibility: 4mi
Dew Point: 45°   Wind: 0mph
Humidity: 86%   Direction: NA
Pressure: 29.94"   Gusts: NA
Location:  38.71°N, 123.35°W
Report Text: KUKI 282056Z AUTO 00000KT 4SM -RA BR SCT027 BKN042 OVC085 09/07 A2994 RMK AO2 RAB31 SLP138 P0003 60003 T00940072 58027
Loading
Personal Weather Stations






























Interactive Weather Map New forecast layout! Learn more

10-Day Weather Forecast

Advertisements
Track Severe Weather on mobile